Portada
METAR-TAF:

METAR-TAF

Aeropuertos :

Auckland, Nueva Zelanda

Aeropuerto Internacional de Auckland

latitud: 37-01S, longitud: 174-48E, altitud: 7 m

Observación

El informe se hizo hace 25 minutos, a las 01:30 UTC
Viento 3 kt del suroeste
Temperatura 13°C
Humedad 77%
Presión 1021 hPa
Visibilidad 10 km o más

METAR: NZAA 280130Z AUTO 23003KT 9999 FEW048/// 13/09 Q1021 NOSIG

Hora: 13:55 (01:55 UTC)

Pronóstico

El informe se hizo hace 2 horas y 54 minutos, a las 23:01 UTC
Pronóstico válido del 28 a las 00 UTC al 29 a las 00 UTC
Viento 5 kt del sureste
Visibilidad 10 km o más
Nubes dispersas a una altura de 5000 ft

TAF: NZAA 272301Z 2800/2900 13005KT 9999 SCT050

Observaciones y pronósticos meteorológicos de más de 4000 aeropuertos (mensajes METAR y TAF).

Los puntos amarillos y rojos representan las estaciones disponibles.

Ponga el ratón en el punto deseado para ver el nombre de la estación.

Haga clic para ver las observaciones y los pronósticos meteorológicos.

Para cambiar el mapa : haga clic en los botones verdes con una cruz de color negro para hacer un zoom, en el botón verde con un guión para alejar o en las flechas verdes para mapas adyacentes.


METAR-TAF: